sensor_id;sensor_type;location;lat;lon;timestamp;P1;durP1;ratioP1;P2;durP2;ratioP2
32094;SDS011;18608;53.688;10.748;2024-03-02T00:02:24;48.20;;;23.93;;
32094;SDS011;18608;53.688;10.748;2024-03-02T00:04:50;53.60;;;24.00;;
32094;SDS011;18608;53.688;10.748;2024-03-02T00:07:16;51.30;;;24.50;;
32094;SDS011;18608;53.688;10.748;2024-03-02T00:09:42;59.77;;;23.23;;
32094;SDS011;18608;53.688;10.748;2024-03-02T00:12:09;46.93;;;23.10;;
32094;SDS011;18608;53.688;10.748;2024-03-02T00:14:40;54.10;;;22.83;;
32094;SDS011;18608;53.688;10.748;2024-03-02T00:17:07;48.03;;;24.33;;
32094;SDS011;18608;53.688;10.748;2024-03-02T00:19:44;52.07;;;23.93;;
32094;SDS011;18608;53.688;10.748;2024-03-02T00:22:10;52.03;;;24.47;;
32094;SDS011;18608;53.688;10.748;2024-03-02T00:24:36;48.00;;;23.40;;
32094;SDS011;18608;53.688;10.748;2024-03-02T00:27:03;48.53;;;21.90;;
32094;SDS011;18608;53.688;10.748;2024-03-02T00:29:32;53.97;;;24.70;;
32094;SDS011;18608;53.688;10.748;2024-03-02T00:31:58;41.07;;;21.40;;
32094;SDS011;18608;53.688;10.748;2024-03-02T00:34:24;46.33;;;23.47;;
32094;SDS011;18608;53.688;10.748;2024-03-02T00:36:50;52.07;;;23.47;;
32094;SDS011;18608;53.688;10.748;2024-03-02T00:39:16;44.70;;;23.20;;
32094;SDS011;18608;53.688;10.748;2024-03-02T00:41:42;48.70;;;24.00;;
32094;SDS011;18608;53.688;10.748;2024-03-02T00:44:12;53.13;;;23.47;;
32094;SDS011;18608;53.688;10.748;2024-03-02T00:46:41;46.83;;;23.40;;
32094;SDS011;18608;53.688;10.748;2024-03-02T00:49:12;44.77;;;23.33;;
32094;SDS011;18608;53.688;10.748;2024-03-02T00:51:44;50.90;;;24.37;;
32094;SDS011;18608;53.688;10.748;2024-03-02T00:54:13;47.20;;;22.20;;
32094;SDS011;18608;53.688;10.748;2024-03-02T00:56:40;48.20;;;23.30;;
32094;SDS011;18608;53.688;10.748;2024-03-02T00:59:06;47.73;;;22.43;;
32094;SDS011;18608;53.688;10.748;2024-03-02T01:01:33;46.13;;;23.50;;
32094;SDS011;18608;53.688;10.748;2024-03-02T01:03:59;49.93;;;23.70;;
32094;SDS011;18608;53.688;10.748;2024-03-02T01:06:25;49.80;;;21.70;;
32094;SDS011;18608;53.688;10.748;2024-03-02T01:08:51;60.30;;;25.67;;
32094;SDS011;18608;53.688;10.748;2024-03-02T01:11:17;53.30;;;22.50;;
32094;SDS011;18608;53.688;10.748;2024-03-02T01:13:43;51.03;;;23.50;;
32094;SDS011;18608;53.688;10.748;2024-03-02T01:16:09;50.53;;;24.93;;
32094;SDS011;18608;53.688;10.748;2024-03-02T01:18:35;47.20;;;22.10;;
32094;SDS011;18608;53.688;10.748;2024-03-02T01:21:02;46.90;;;23.17;;
32094;SDS011;18608;53.688;10.748;2024-03-02T01:23:27;55.87;;;24.20;;
32094;SDS011;18608;53.688;10.748;2024-03-02T01:25:53;58.43;;;22.63;;
32094;SDS011;18608;53.688;10.748;2024-03-02T01:28:20;55.10;;;24.93;;
32094;SDS011;18608;53.688;10.748;2024-03-02T01:30:46;47.90;;;24.80;;
32094;SDS011;18608;53.688;10.748;2024-03-02T01:33:12;47.33;;;23.77;;
32094;SDS011;18608;53.688;10.748;2024-03-02T01:35:38;48.40;;;24.73;;
32094;SDS011;18608;53.688;10.748;2024-03-02T01:38:04;56.17;;;26.53;;
32094;SDS011;18608;53.688;10.748;2024-03-02T01:40:32;55.63;;;24.57;;
32094;SDS011;18608;53.688;10.748;2024-03-02T01:43:01;50.93;;;23.90;;
32094;SDS011;18608;53.688;10.748;2024-03-02T01:45:27;50.23;;;24.80;;
32094;SDS011;18608;53.688;10.748;2024-03-02T01:47:53;47.97;;;25.90;;
32094;SDS011;18608;53.688;10.748;2024-03-02T01:50:29;54.20;;;25.67;;
32094;SDS011;18608;53.688;10.748;2024-03-02T01:52:57;61.77;;;25.20;;
32094;SDS011;18608;53.688;10.748;2024-03-02T01:55:23;49.87;;;25.07;;
32094;SDS011;18608;53.688;10.748;2024-03-02T01:57:49;52.20;;;24.30;;
32094;SDS011;18608;53.688;10.748;2024-03-02T02:00:16;57.67;;;26.90;;
32094;SDS011;18608;53.688;10.748;2024-03-02T02:02:42;56.40;;;25.67;;
32094;SDS011;18608;53.688;10.748;2024-03-02T02:05:08;48.53;;;22.70;;
32094;SDS011;18608;53.688;10.748;2024-03-02T02:07:35;51.63;;;25.67;;
32094;SDS011;18608;53.688;10.748;2024-03-02T02:10:01;49.17;;;23.50;;
32094;SDS011;18608;53.688;10.748;2024-03-02T02:12:27;59.50;;;24.33;;
32094;SDS011;18608;53.688;10.748;2024-03-02T02:14:53;62.70;;;26.50;;
32094;SDS011;18608;53.688;10.748;2024-03-02T02:17:19;53.87;;;26.33;;
32094;SDS011;18608;53.688;10.748;2024-03-02T02:19:45;64.37;;;27.27;;
32094;SDS011;18608;53.688;10.748;2024-03-02T02:22:11;57.10;;;27.47;;
32094;SDS011;18608;53.688;10.748;2024-03-02T02:24:40;51.10;;;22.90;;
32094;SDS011;18608;53.688;10.748;2024-03-02T02:27:07;54.90;;;24.13;;
32094;SDS011;18608;53.688;10.748;2024-03-02T02:29:33;55.40;;;25.20;;
32094;SDS011;18608;53.688;10.748;2024-03-02T02:31:59;55.50;;;27.47;;
32094;SDS011;18608;53.688;10.748;2024-03-02T02:34:25;50.07;;;22.73;;
32094;SDS011;18608;53.688;10.748;2024-03-02T02:36:51;50.13;;;25.80;;
32094;SDS011;18608;53.688;10.748;2024-03-02T02:39:17;54.73;;;26.27;;
32094;SDS011;18608;53.688;10.748;2024-03-02T02:41:45;59.83;;;26.00;;
32094;SDS011;18608;53.688;10.748;2024-03-02T02:44:11;49.37;;;24.60;;
32094;SDS011;18608;53.688;10.748;2024-03-02T02:46:38;48.40;;;23.90;;
32094;SDS011;18608;53.688;10.748;2024-03-02T02:49:04;50.07;;;26.47;;
32094;SDS011;18608;53.688;10.748;2024-03-02T02:51:30;48.40;;;23.77;;
32094;SDS011;18608;53.688;10.748;2024-03-02T02:53:56;46.07;;;24.87;;
32094;SDS011;18608;53.688;10.748;2024-03-02T02:56:22;58.27;;;26.37;;
32094;SDS011;18608;53.688;10.748;2024-03-02T02:58:48;52.53;;;26.30;;
32094;SDS011;18608;53.688;10.748;2024-03-02T03:01:17;54.23;;;27.30;;
32094;SDS011;18608;53.688;10.748;2024-03-02T03:03:45;57.47;;;28.10;;
32094;SDS011;18608;53.688;10.748;2024-03-02T03:06:11;53.30;;;26.20;;
32094;SDS011;18608;53.688;10.748;2024-03-02T03:08:37;51.23;;;25.57;;
32094;SDS011;18608;53.688;10.748;2024-03-02T03:11:04;66.33;;;29.47;;
32094;SDS011;18608;53.688;10.748;2024-03-02T03:13:30;57.80;;;26.93;;
32094;SDS011;18608;53.688;10.748;2024-03-02T03:15:59;58.03;;;26.17;;
32094;SDS011;18608;53.688;10.748;2024-03-02T03:18:25;56.97;;;26.60;;
32094;SDS011;18608;53.688;10.748;2024-03-02T03:20:51;57.20;;;27.57;;
32094;SDS011;18608;53.688;10.748;2024-03-02T03:23:17;65.40;;;29.17;;
32094;SDS011;18608;53.688;10.748;2024-03-02T03:25:43;54.83;;;25.33;;
32094;SDS011;18608;53.688;10.748;2024-03-02T03:28:09;58.83;;;27.47;;
32094;SDS011;18608;53.688;10.748;2024-03-02T03:30:36;55.23;;;27.10;;
32094;SDS011;18608;53.688;10.748;2024-03-02T03:33:02;55.27;;;25.90;;
32094;SDS011;18608;53.688;10.748;2024-03-02T03:35:28;62.63;;;26.47;;
32094;SDS011;18608;53.688;10.748;2024-03-02T03:37:54;69.70;;;27.63;;
32094;SDS011;18608;53.688;10.748;2024-03-02T03:40:20;55.00;;;26.90;;
32094;SDS011;18608;53.688;10.748;2024-03-02T03:42:46;52.37;;;27.10;;
32094;SDS011;18608;53.688;10.748;2024-03-02T03:45:13;56.90;;;29.00;;
32094;SDS011;18608;53.688;10.748;2024-03-02T03:47:40;50.20;;;26.30;;
32094;SDS011;18608;53.688;10.748;2024-03-02T03:50:06;66.97;;;29.23;;
32094;SDS011;18608;53.688;10.748;2024-03-02T03:52:32;58.67;;;27.57;;
32094;SDS011;18608;53.688;10.748;2024-03-02T03:54:58;50.30;;;26.97;;
32094;SDS011;18608;53.688;10.748;2024-03-02T03:57:24;64.33;;;28.50;;
32094;SDS011;18608;53.688;10.748;2024-03-02T03:59:51;53.40;;;27.87;;
32094;SDS011;18608;53.688;10.748;2024-03-02T04:02:17;56.53;;;26.77;;
32094;SDS011;18608;53.688;10.748;2024-03-02T04:04:43;51.70;;;27.53;;
32094;SDS011;18608;53.688;10.748;2024-03-02T04:07:09;57.77;;;29.77;;
32094;SDS011;18608;53.688;10.748;2024-03-02T04:09:35;59.43;;;26.87;;
32094;SDS011;18608;53.688;10.748;2024-03-02T04:12:01;64.10;;;28.07;;
32094;SDS011;18608;53.688;10.748;2024-03-02T04:14:26;54.97;;;27.03;;
32094;SDS011;18608;53.688;10.748;2024-03-02T04:16:52;75.40;;;27.67;;
32094;SDS011;18608;53.688;10.748;2024-03-02T04:19:18;66.03;;;28.33;;
32094;SDS011;18608;53.688;10.748;2024-03-02T04:21:44;65.13;;;29.60;;
32094;SDS011;18608;53.688;10.748;2024-03-02T04:24:10;68.20;;;32.00;;
32094;SDS011;18608;53.688;10.748;2024-03-02T04:26:36;63.90;;;30.10;;
32094;SDS011;18608;53.688;10.748;2024-03-02T04:29:02;73.27;;;29.83;;
32094;SDS011;18608;53.688;10.748;2024-03-02T04:31:28;64.03;;;28.70;;
32094;SDS011;18608;53.688;10.748;2024-03-02T04:33:54;60.63;;;28.70;;
32094;SDS011;18608;53.688;10.748;2024-03-02T04:36:20;55.67;;;29.00;;
32094;SDS011;18608;53.688;10.748;2024-03-02T04:38:46;62.23;;;27.13;;
32094;SDS011;18608;53.688;10.748;2024-03-02T04:41:12;55.37;;;27.67;;
32094;SDS011;18608;53.688;10.748;2024-03-02T04:43:38;66.63;;;29.60;;
32094;SDS011;18608;53.688;10.748;2024-03-02T04:46:04;61.00;;;28.07;;
32094;SDS011;18608;53.688;10.748;2024-03-02T04:48:30;70.23;;;30.90;;
32094;SDS011;18608;53.688;10.748;2024-03-02T04:50:56;58.47;;;28.03;;
32094;SDS011;18608;53.688;10.748;2024-03-02T04:53:23;64.27;;;29.00;;
32094;SDS011;18608;53.688;10.748;2024-03-02T04:55:49;58.17;;;28.30;;
32094;SDS011;18608;53.688;10.748;2024-03-02T04:58:24;56.67;;;27.10;;
32094;SDS011;18608;53.688;10.748;2024-03-02T05:00:50;60.90;;;27.60;;
32094;SDS011;18608;53.688;10.748;2024-03-02T05:03:16;72.90;;;30.53;;
32094;SDS011;18608;53.688;10.748;2024-03-02T05:05:42;78.10;;;29.30;;
32094;SDS011;18608;53.688;10.748;2024-03-02T05:08:08;59.90;;;26.50;;
32094;SDS011;18608;53.688;10.748;2024-03-02T05:10:35;54.97;;;28.47;;
32094;SDS011;18608;53.688;10.748;2024-03-02T05:13:01;64.93;;;29.03;;
32094;SDS011;18608;53.688;10.748;2024-03-02T05:15:27;56.60;;;27.13;;
32094;SDS011;18608;53.688;10.748;2024-03-02T05:17:53;66.40;;;28.60;;
32094;SDS011;18608;53.688;10.748;2024-03-02T05:20:19;63.43;;;30.80;;
32094;SDS011;18608;53.688;10.748;2024-03-02T05:22:45;67.57;;;29.77;;
32094;SDS011;18608;53.688;10.748;2024-03-02T05:25:12;75.27;;;30.80;;
32094;SDS011;18608;53.688;10.748;2024-03-02T05:27:38;64.63;;;29.60;;
32094;SDS011;18608;53.688;10.748;2024-03-02T05:30:04;66.10;;;30.20;;
32094;SDS011;18608;53.688;10.748;2024-03-02T05:32:31;59.97;;;30.70;;
32094;SDS011;18608;53.688;10.748;2024-03-02T05:34:57;67.13;;;29.87;;
32094;SDS011;18608;53.688;10.748;2024-03-02T05:37:23;73.27;;;30.17;;
32094;SDS011;18608;53.688;10.748;2024-03-02T05:39:49;65.80;;;28.73;;
32094;SDS011;18608;53.688;10.748;2024-03-02T05:42:15;70.40;;;30.60;;
32094;SDS011;18608;53.688;10.748;2024-03-02T05:44:41;65.60;;;29.57;;
32094;SDS011;18608;53.688;10.748;2024-03-02T05:47:08;64.30;;;29.70;;
32094;SDS011;18608;53.688;10.748;2024-03-02T05:49:34;75.57;;;31.60;;
32094;SDS011;18608;53.688;10.748;2024-03-02T05:52:00;70.60;;;31.00;;
32094;SDS011;18608;53.688;10.748;2024-03-02T05:54:26;76.00;;;33.70;;
32094;SDS011;18608;53.688;10.748;2024-03-02T05:56:52;76.33;;;32.00;;
32094;SDS011;18608;53.688;10.748;2024-03-02T05:59:17;68.80;;;31.37;;
32094;SDS011;18608;53.688;10.748;2024-03-02T06:01:43;70.47;;;29.50;;
32094;SDS011;18608;53.688;10.748;2024-03-02T06:04:11;61.23;;;29.80;;
32094;SDS011;18608;53.688;10.748;2024-03-02T06:06:37;62.87;;;30.10;;
32094;SDS011;18608;53.688;10.748;2024-03-02T06:09:04;66.90;;;32.40;;
32094;SDS011;18608;53.688;10.748;2024-03-02T06:11:36;75.13;;;31.43;;
32094;SDS011;18608;53.688;10.748;2024-03-02T06:14:02;62.60;;;28.07;;
32094;SDS011;18608;53.688;10.748;2024-03-02T06:16:28;65.83;;;29.80;;
32094;SDS011;18608;53.688;10.748;2024-03-02T06:18:55;73.73;;;33.20;;
32094;SDS011;18608;53.688;10.748;2024-03-02T06:21:22;70.10;;;33.13;;
32094;SDS011;18608;53.688;10.748;2024-03-02T06:23:48;73.07;;;32.13;;
32094;SDS011;18608;53.688;10.748;2024-03-02T06:26:14;74.83;;;34.00;;
32094;SDS011;18608;53.688;10.748;2024-03-02T06:28:40;63.93;;;28.90;;
32094;SDS011;18608;53.688;10.748;2024-03-02T06:31:06;65.90;;;31.27;;
32094;SDS011;18608;53.688;10.748;2024-03-02T06:33:32;75.90;;;32.73;;
32094;SDS011;18608;53.688;10.748;2024-03-02T06:35:58;68.43;;;29.70;;
32094;SDS011;18608;53.688;10.748;2024-03-02T06:38:24;71.43;;;31.30;;
32094;SDS011;18608;53.688;10.748;2024-03-02T06:40:51;72.93;;;30.77;;
32094;SDS011;18608;53.688;10.748;2024-03-02T06:43:17;75.30;;;32.20;;
32094;SDS011;18608;53.688;10.748;2024-03-02T06:45:43;73.30;;;33.83;;
32094;SDS011;18608;53.688;10.748;2024-03-02T06:48:08;82.57;;;30.83;;
32094;SDS011;18608;53.688;10.748;2024-03-02T06:50:35;68.20;;;31.80;;
32094;SDS011;18608;53.688;10.748;2024-03-02T06:53:01;76.97;;;30.00;;
32094;SDS011;18608;53.688;10.748;2024-03-02T06:55:29;73.87;;;30.83;;
32094;SDS011;18608;53.688;10.748;2024-03-02T06:57:55;75.87;;;31.97;;
32094;SDS011;18608;53.688;10.748;2024-03-02T07:00:21;58.97;;;29.73;;
32094;SDS011;18608;53.688;10.748;2024-03-02T07:02:47;78.13;;;31.60;;
32094;SDS011;18608;53.688;10.748;2024-03-02T07:05:14;64.90;;;30.47;;
32094;SDS011;18608;53.688;10.748;2024-03-02T07:07:40;62.07;;;30.60;;
32094;SDS011;18608;53.688;10.748;2024-03-02T07:10:06;64.00;;;30.67;;
32094;SDS011;18608;53.688;10.748;2024-03-02T07:12:32;60.43;;;28.03;;
32094;SDS011;18608;53.688;10.748;2024-03-02T07:14:58;69.67;;;30.17;;
32094;SDS011;18608;53.688;10.748;2024-03-02T07:17:30;69.00;;;30.80;;
32094;SDS011;18608;53.688;10.748;2024-03-02T07:19:56;70.60;;;29.93;;
32094;SDS011;18608;53.688;10.748;2024-03-02T07:22:23;65.63;;;29.90;;
32094;SDS011;18608;53.688;10.748;2024-03-02T07:24:48;60.90;;;29.43;;
32094;SDS011;18608;53.688;10.748;2024-03-02T07:27:15;71.83;;;31.23;;
32094;SDS011;18608;53.688;10.748;2024-03-02T07:29:41;74.70;;;29.70;;
32094;SDS011;18608;53.688;10.748;2024-03-02T07:32:07;63.60;;;28.90;;
32094;SDS011;18608;53.688;10.748;2024-03-02T07:34:34;63.93;;;31.00;;
32094;SDS011;18608;53.688;10.748;2024-03-02T07:37:00;64.07;;;28.70;;
32094;SDS011;18608;53.688;10.748;2024-03-02T07:39:26;72.77;;;29.63;;
32094;SDS011;18608;53.688;10.748;2024-03-02T07:41:52;64.53;;;29.33;;
32094;SDS011;18608;53.688;10.748;2024-03-02T07:44:18;71.57;;;29.60;;
32094;SDS011;18608;53.688;10.748;2024-03-02T07:46:47;71.17;;;33.17;;
32094;SDS011;18608;53.688;10.748;2024-03-02T07:49:17;63.30;;;31.20;;
32094;SDS011;18608;53.688;10.748;2024-03-02T07:51:44;60.63;;;30.03;;
32094;SDS011;18608;53.688;10.748;2024-03-02T07:54:10;71.93;;;32.57;;
32094;SDS011;18608;53.688;10.748;2024-03-02T07:56:36;77.10;;;31.40;;
32094;SDS011;18608;53.688;10.748;2024-03-02T07:59:02;70.00;;;30.37;;
32094;SDS011;18608;53.688;10.748;2024-03-02T08:01:28;62.67;;;29.87;;
32094;SDS011;18608;53.688;10.748;2024-03-02T08:03:58;65.90;;;31.77;;
32094;SDS011;18608;53.688;10.748;2024-03-02T08:06:25;61.00;;;31.13;;
32094;SDS011;18608;53.688;10.748;2024-03-02T08:08:55;70.03;;;30.83;;
32094;SDS011;18608;53.688;10.748;2024-03-02T08:11:21;60.83;;;28.77;;
32094;SDS011;18608;53.688;10.748;2024-03-02T08:13:47;69.40;;;31.17;;
32094;SDS011;18608;53.688;10.748;2024-03-02T08:16:14;58.50;;;28.53;;
32094;SDS011;18608;53.688;10.748;2024-03-02T08:18:41;64.00;;;29.10;;
32094;SDS011;18608;53.688;10.748;2024-03-02T08:21:07;59.43;;;30.00;;
32094;SDS011;18608;53.688;10.748;2024-03-02T08:23:33;63.80;;;30.07;;
32094;SDS011;18608;53.688;10.748;2024-03-02T08:25:59;65.57;;;30.40;;
32094;SDS011;18608;53.688;10.748;2024-03-02T08:28:25;51.20;;;25.93;;
32094;SDS011;18608;53.688;10.748;2024-03-02T08:30:50;55.03;;;27.60;;
32094;SDS011;18608;53.688;10.748;2024-03-02T08:33:16;59.10;;;27.63;;
32094;SDS011;18608;53.688;10.748;2024-03-02T08:35:43;55.07;;;29.13;;
32094;SDS011;18608;53.688;10.748;2024-03-02T08:38:09;49.17;;;27.60;;
32094;SDS011;18608;53.688;10.748;2024-03-02T08:40:35;55.90;;;29.57;;
32094;SDS011;18608;53.688;10.748;2024-03-02T08:43:01;63.03;;;29.50;;
32094;SDS011;18608;53.688;10.748;2024-03-02T08:45:27;61.30;;;27.77;;
32094;SDS011;18608;53.688;10.748;2024-03-02T08:47:53;61.73;;;27.90;;
32094;SDS011;18608;53.688;10.748;2024-03-02T08:50:19;58.97;;;28.03;;
32094;SDS011;18608;53.688;10.748;2024-03-02T08:52:45;62.20;;;27.80;;
32094;SDS011;18608;53.688;10.748;2024-03-02T08:55:11;64.10;;;29.20;;
32094;SDS011;18608;53.688;10.748;2024-03-02T08:57:37;68.77;;;29.97;;
32094;SDS011;18608;53.688;10.748;2024-03-02T09:00:03;65.43;;;28.73;;
32094;SDS011;18608;53.688;10.748;2024-03-02T09:02:30;56.30;;;27.63;;
32094;SDS011;18608;53.688;10.748;2024-03-02T09:04:56;54.33;;;27.97;;
32094;SDS011;18608;53.688;10.748;2024-03-02T09:07:22;48.97;;;25.47;;
32094;SDS011;18608;53.688;10.748;2024-03-02T09:09:48;63.13;;;29.30;;
32094;SDS011;18608;53.688;10.748;2024-03-02T09:12:14;58.33;;;27.90;;
32094;SDS011;18608;53.688;10.748;2024-03-02T09:14:40;54.27;;;27.97;;
32094;SDS011;18608;53.688;10.748;2024-03-02T09:17:06;62.00;;;28.87;;
32094;SDS011;18608;53.688;10.748;2024-03-02T09:19:35;66.87;;;27.40;;
32094;SDS011;18608;53.688;10.748;2024-03-02T09:22:01;63.67;;;28.33;;
32094;SDS011;18608;53.688;10.748;2024-03-02T09:24:30;54.63;;;26.17;;
32094;SDS011;18608;53.688;10.748;2024-03-02T09:26:56;61.50;;;26.90;;
32094;SDS011;18608;53.688;10.748;2024-03-02T09:29:22;55.70;;;27.30;;
32094;SDS011;18608;53.688;10.748;2024-03-02T09:31:48;55.83;;;26.77;;
32094;SDS011;18608;53.688;10.748;2024-03-02T09:34:15;53.43;;;26.97;;
32094;SDS011;18608;53.688;10.748;2024-03-02T09:36:41;56.53;;;28.83;;
32094;SDS011;18608;53.688;10.748;2024-03-02T09:39:07;48.67;;;26.37;;
32094;SDS011;18608;53.688;10.748;2024-03-02T09:41:34;47.07;;;27.37;;
32094;SDS011;18608;53.688;10.748;2024-03-02T09:44:02;50.13;;;25.10;;
32094;SDS011;18608;53.688;10.748;2024-03-02T09:46:28;47.17;;;24.40;;
32094;SDS011;18608;53.688;10.748;2024-03-02T09:48:54;55.10;;;24.70;;
32094;SDS011;18608;53.688;10.748;2024-03-02T09:51:20;46.80;;;23.00;;
32094;SDS011;18608;53.688;10.748;2024-03-02T09:53:46;41.10;;;22.50;;
32094;SDS011;18608;53.688;10.748;2024-03-02T09:56:13;45.00;;;23.10;;
32094;SDS011;18608;53.688;10.748;2024-03-02T09:58:40;41.83;;;20.60;;
32094;SDS011;18608;53.688;10.748;2024-03-02T10:01:07;45.40;;;22.70;;
32094;SDS011;18608;53.688;10.748;2024-03-02T10:03:35;42.30;;;21.83;;
32094;SDS011;18608;53.688;10.748;2024-03-02T10:08:47;39.47;;;19.43;;
32094;SDS011;18608;53.688;10.748;2024-03-02T10:11:27;37.50;;;21.37;;
32094;SDS011;18608;53.688;10.748;2024-03-02T10:14:10;44.20;;;21.00;;
32094;SDS011;18608;53.688;10.748;2024-03-02T10:16:40;36.77;;;21.73;;
32094;SDS011;18608;53.688;10.748;2024-03-02T10:19:18;40.13;;;20.80;;
32094;SDS011;18608;53.688;10.748;2024-03-02T10:21:46;39.20;;;20.00;;
32094;SDS011;18608;53.688;10.748;2024-03-02T10:24:12;35.83;;;19.53;;
32094;SDS011;18608;53.688;10.748;2024-03-02T10:26:39;38.53;;;20.37;;
32094;SDS011;18608;53.688;10.748;2024-03-02T10:29:05;39.20;;;20.67;;
32094;SDS011;18608;53.688;10.748;2024-03-02T10:31:31;39.47;;;19.40;;
32094;SDS011;18608;53.688;10.748;2024-03-02T10:33:57;37.97;;;20.90;;
32094;SDS011;18608;53.688;10.748;2024-03-02T10:36:24;34.70;;;19.50;;
32094;SDS011;18608;53.688;10.748;2024-03-02T10:38:51;38.80;;;19.67;;
32094;SDS011;18608;53.688;10.748;2024-03-02T10:41:22;34.33;;;19.70;;
32094;SDS011;18608;53.688;10.748;2024-03-02T10:43:49;38.30;;;19.13;;
32094;SDS011;18608;53.688;10.748;2024-03-02T10:46:15;34.63;;;19.20;;
32094;SDS011;18608;53.688;10.748;2024-03-02T10:48:44;35.37;;;19.70;;
32094;SDS011;18608;53.688;10.748;2024-03-02T10:51:11;35.37;;;19.07;;
32094;SDS011;18608;53.688;10.748;2024-03-02T10:53:37;30.77;;;17.80;;
32094;SDS011;18608;53.688;10.748;2024-03-02T10:56:03;33.73;;;19.07;;
32094;SDS011;18608;53.688;10.748;2024-03-02T10:58:34;26.90;;;14.97;;
32094;SDS011;18608;53.688;10.748;2024-03-02T11:01:04;33.50;;;18.43;;
32094;SDS011;18608;53.688;10.748;2024-03-02T11:03:33;32.63;;;16.93;;
32094;SDS011;18608;53.688;10.748;2024-03-02T11:06:02;35.87;;;16.97;;
32094;SDS011;18608;53.688;10.748;2024-03-02T11:08:31;29.67;;;17.97;;
32094;SDS011;18608;53.688;10.748;2024-03-02T11:11:06;30.50;;;16.53;;
32094;SDS011;18608;53.688;10.748;2024-03-02T11:13:36;29.27;;;16.80;;
32094;SDS011;18608;53.688;10.748;2024-03-02T11:16:05;30.43;;;15.73;;
32094;SDS011;18608;53.688;10.748;2024-03-02T11:18:37;21.13;;;13.93;;
32094;SDS011;18608;53.688;10.748;2024-03-02T11:21:05;28.97;;;16.47;;
32094;SDS011;18608;53.688;10.748;2024-03-02T11:23:32;27.80;;;15.00;;
32094;SDS011;18608;53.688;10.748;2024-03-02T11:28:47;23.33;;;14.20;;
32094;SDS011;18608;53.688;10.748;2024-03-02T11:31:13;27.50;;;13.30;;
32094;SDS011;18608;53.688;10.748;2024-03-02T11:33:39;22.27;;;12.90;;
32094;SDS011;18608;53.688;10.748;2024-03-02T11:36:08;23.30;;;12.77;;
32094;SDS011;18608;53.688;10.748;2024-03-02T11:38:34;20.87;;;12.40;;
32094;SDS011;18608;53.688;10.748;2024-03-02T11:41:01;30.17;;;14.97;;
32094;SDS011;18608;53.688;10.748;2024-03-02T11:43:32;22.90;;;12.60;;
32094;SDS011;18608;53.688;10.748;2024-03-02T11:46:03;21.57;;;12.77;;
32094;SDS011;18608;53.688;10.748;2024-03-02T11:48:32;25.27;;;12.30;;
32094;SDS011;18608;53.688;10.748;2024-03-02T11:50:59;17.60;;;10.17;;
32094;SDS011;18608;53.688;10.748;2024-03-02T11:53:27;18.83;;;11.30;;
32094;SDS011;18608;53.688;10.748;2024-03-02T11:55:57;24.00;;;12.47;;
32094;SDS011;18608;53.688;10.748;2024-03-02T11:58:24;16.97;;;10.20;;
32094;SDS011;18608;53.688;10.748;2024-03-02T12:00:51;20.93;;;10.23;;
32094;SDS011;18608;53.688;10.748;2024-03-02T12:03:17;14.90;;;9.03;;
32094;SDS011;18608;53.688;10.748;2024-03-02T12:05:48;14.60;;;9.13;;
32094;SDS011;18608;53.688;10.748;2024-03-02T12:08:15;11.07;;;8.00;;
32094;SDS011;18608;53.688;10.748;2024-03-02T12:10:41;14.63;;;9.20;;
32094;SDS011;18608;53.688;10.748;2024-03-02T12:13:08;11.60;;;8.07;;
32094;SDS011;18608;53.688;10.748;2024-03-02T12:15:38;14.30;;;7.83;;
32094;SDS011;18608;53.688;10.748;2024-03-02T12:18:04;15.03;;;8.13;;
32094;SDS011;18608;53.688;10.748;2024-03-02T12:20:31;15.77;;;8.53;;
32094;SDS011;18608;53.688;10.748;2024-03-02T12:22:58;12.53;;;7.87;;
32094;SDS011;18608;53.688;10.748;2024-03-02T12:25:26;17.50;;;8.33;;
32094;SDS011;18608;53.688;10.748;2024-03-02T12:27:56;13.63;;;7.77;;
32094;SDS011;18608;53.688;10.748;2024-03-02T12:30:24;15.30;;;8.23;;
32094;SDS011;18608;53.688;10.748;2024-03-02T12:32:54;12.80;;;7.57;;
32094;SDS011;18608;53.688;10.748;2024-03-02T12:35:20;17.33;;;8.33;;
32094;SDS011;18608;53.688;10.748;2024-03-02T12:37:46;15.93;;;8.23;;
32094;SDS011;18608;53.688;10.748;2024-03-02T12:40:13;14.77;;;8.30;;
32094;SDS011;18608;53.688;10.748;2024-03-02T12:42:40;10.20;;;7.30;;
32094;SDS011;18608;53.688;10.748;2024-03-02T12:45:07;13.03;;;7.53;;
32094;SDS011;18608;53.688;10.748;2024-03-02T12:47:36;16.07;;;7.90;;
32094;SDS011;18608;53.688;10.748;2024-03-02T12:50:04;16.13;;;8.40;;
32094;SDS011;18608;53.688;10.748;2024-03-02T12:52:30;12.67;;;7.87;;
32094;SDS011;18608;53.688;10.748;2024-03-02T12:55:00;15.40;;;8.43;;
32094;SDS011;18608;53.688;10.748;2024-03-02T12:57:28;15.00;;;7.40;;
32094;SDS011;18608;53.688;10.748;2024-03-02T12:59:59;17.33;;;9.43;;
32094;SDS011;18608;53.688;10.748;2024-03-02T13:02:39;13.27;;;8.87;;
32094;SDS011;18608;53.688;10.748;2024-03-02T13:05:06;14.10;;;8.30;;
32094;SDS011;18608;53.688;10.748;2024-03-02T13:07:36;12.90;;;7.73;;
32094;SDS011;18608;53.688;10.748;2024-03-02T13:10:02;12.90;;;7.87;;
32094;SDS011;18608;53.688;10.748;2024-03-02T13:12:29;16.20;;;8.60;;
32094;SDS011;18608;53.688;10.748;2024-03-02T13:14:57;14.27;;;8.23;;
32094;SDS011;18608;53.688;10.748;2024-03-02T13:17:23;13.40;;;7.53;;
32094;SDS011;18608;53.688;10.748;2024-03-02T13:19:55;14.87;;;8.30;;
32094;SDS011;18608;53.688;10.748;2024-03-02T13:22:24;14.70;;;8.33;;
32094;SDS011;18608;53.688;10.748;2024-03-02T13:24:51;16.27;;;9.50;;
32094;SDS011;18608;53.688;10.748;2024-03-02T13:27:19;15.00;;;8.47;;
32094;SDS011;18608;53.688;10.748;2024-03-02T13:29:48;15.33;;;8.17;;
32094;SDS011;18608;53.688;10.748;2024-03-02T13:32:14;14.07;;;8.60;;
32094;SDS011;18608;53.688;10.748;2024-03-02T13:34:40;14.33;;;8.27;;
32094;SDS011;18608;53.688;10.748;2024-03-02T13:37:07;17.80;;;9.87;;
32094;SDS011;18608;53.688;10.748;2024-03-02T13:39:33;14.40;;;8.33;;
32094;SDS011;18608;53.688;10.748;2024-03-02T13:42:05;16.73;;;9.20;;
32094;SDS011;18608;53.688;10.748;2024-03-02T13:44:32;14.70;;;7.87;;
32094;SDS011;18608;53.688;10.748;2024-03-02T13:46:59;11.67;;;7.27;;
32094;SDS011;18608;53.688;10.748;2024-03-02T13:49:25;23.80;;;7.63;;
32094;SDS011;18608;53.688;10.748;2024-03-02T13:52:05;14.83;;;8.50;;
32094;SDS011;18608;53.688;10.748;2024-03-02T13:54:41;11.17;;;8.50;;
32094;SDS011;18608;53.688;10.748;2024-03-02T13:57:11;13.43;;;9.20;;
32094;SDS011;18608;53.688;10.748;2024-03-02T13:59:38;14.40;;;8.00;;
32094;SDS011;18608;53.688;10.748;2024-03-02T14:02:04;16.37;;;8.63;;
32094;SDS011;18608;53.688;10.748;2024-03-02T14:04:33;12.17;;;7.70;;
32094;SDS011;18608;53.688;10.748;2024-03-02T14:06:59;12.57;;;8.10;;
32094;SDS011;18608;53.688;10.748;2024-03-02T14:09:25;14.47;;;8.23;;
32094;SDS011;18608;53.688;10.748;2024-03-02T14:11:52;14.17;;;9.13;;
32094;SDS011;18608;53.688;10.748;2024-03-02T14:14:18;21.10;;;10.87;;
32094;SDS011;18608;53.688;10.748;2024-03-02T14:16:45;19.57;;;10.00;;